sensor_id;sensor_type;location;lat;lon;timestamp;temperature;humidity
3919;DHT22;1974;48.670;8.994;2023-05-10T00:01:57;13.20;99.90
3919;DHT22;1974;48.670;8.994;2023-05-10T00:04:24;13.30;99.90
3919;DHT22;1974;48.670;8.994;2023-05-10T00:06:52;13.20;99.90
3919;DHT22;1974;48.670;8.994;2023-05-10T00:09:19;13.10;99.90
3919;DHT22;1974;48.670;8.994;2023-05-10T00:11:46;13.10;99.90
3919;DHT22;1974;48.670;8.994;2023-05-10T00:14:14;13.10;99.90
3919;DHT22;1974;48.670;8.994;2023-05-10T00:16:41;13.10;99.90
3919;DHT22;1974;48.670;8.994;2023-05-10T00:19:07;13.10;99.90
3919;DHT22;1974;48.670;8.994;2023-05-10T00:21:34;13.10;99.90
3919;DHT22;1974;48.670;8.994;2023-05-10T00:24:01;13.10;99.90
3919;DHT22;1974;48.670;8.994;2023-05-10T00:26:27;13.10;99.90
3919;DHT22;1974;48.670;8.994;2023-05-10T00:28:54;13.20;99.90
3919;DHT22;1974;48.670;8.994;2023-05-10T00:31:23;13.10;99.90
3919;DHT22;1974;48.670;8.994;2023-05-10T00:33:50;13.10;99.90
3919;DHT22;1974;48.670;8.994;2023-05-10T00:36:17;13.00;99.90
3919;DHT22;1974;48.670;8.994;2023-05-10T00:38:43;13.10;99.90
3919;DHT22;1974;48.670;8.994;2023-05-10T00:41:11;13.10;99.90
3919;DHT22;1974;48.670;8.994;2023-05-10T00:43:37;13.10;99.90
3919;DHT22;1974;48.670;8.994;2023-05-10T00:46:04;13.10;99.90
3919;DHT22;1974;48.670;8.994;2023-05-10T00:48:33;13.10;99.90
3919;DHT22;1974;48.670;8.994;2023-05-10T00:51:00;13.10;99.90
3919;DHT22;1974;48.670;8.994;2023-05-10T00:53:27;13.10;99.90
3919;DHT22;1974;48.670;8.994;2023-05-10T00:55:55;13.10;99.90
3919;DHT22;1974;48.670;8.994;2023-05-10T00:58:22;13.00;99.90
3919;DHT22;1974;48.670;8.994;2023-05-10T01:00:49;13.00;99.90
3919;DHT22;1974;48.670;8.994;2023-05-10T01:03:17;13.00;99.90
3919;DHT22;1974;48.670;8.994;2023-05-10T01:05:45;13.00;99.90
3919;DHT22;1974;48.670;8.994;2023-05-10T01:08:11;12.90;99.90
3919;DHT22;1974;48.670;8.994;2023-05-10T01:10:38;12.90;99.90
3919;DHT22;1974;48.670;8.994;2023-05-10T01:13:05;12.90;99.90
3919;DHT22;1974;48.670;8.994;2023-05-10T01:15:32;12.90;99.90
3919;DHT22;1974;48.670;8.994;2023-05-10T01:17:59;12.90;99.90
3919;DHT22;1974;48.670;8.994;2023-05-10T01:20:29;12.80;99.90
3919;DHT22;1974;48.670;8.994;2023-05-10T01:23:22;12.80;99.90
3919;DHT22;1974;48.670;8.994;2023-05-10T01:26:07;12.80;99.90
3919;DHT22;1974;48.670;8.994;2023-05-10T01:28:58;12.80;99.90
3919;DHT22;1974;48.670;8.994;2023-05-10T01:34:32;12.70;99.90
3919;DHT22;1974;48.670;8.994;2023-05-10T01:37:07;12.70;99.90
3919;DHT22;1974;48.670;8.994;2023-05-10T01:39:43;12.70;99.90
3919;DHT22;1974;48.670;8.994;2023-05-10T01:42:13;12.70;99.90
3919;DHT22;1974;48.670;8.994;2023-05-10T01:44:45;12.70;99.90
3919;DHT22;1974;48.670;8.994;2023-05-10T01:47:20;12.70;99.90
3919;DHT22;1974;48.670;8.994;2023-05-10T01:49:53;12.70;99.90
3919;DHT22;1974;48.670;8.994;2023-05-10T01:52:26;12.70;99.90
3919;DHT22;1974;48.670;8.994;2023-05-10T01:55:02;12.70;99.90
3919;DHT22;1974;48.670;8.994;2023-05-10T01:57:33;12.60;99.90
3919;DHT22;1974;48.670;8.994;2023-05-10T02:00:01;12.60;99.90
3919;DHT22;1974;48.670;8.994;2023-05-10T02:02:30;12.60;99.90
3919;DHT22;1974;48.670;8.994;2023-05-10T02:05:01;12.60;99.90
3919;DHT22;1974;48.670;8.994;2023-05-10T02:07:29;12.60;99.90
3919;DHT22;1974;48.670;8.994;2023-05-10T02:09:58;12.60;99.90
3919;DHT22;1974;48.670;8.994;2023-05-10T02:12:25;12.60;99.90
3919;DHT22;1974;48.670;8.994;2023-05-10T02:14:53;12.50;99.90
3919;DHT22;1974;48.670;8.994;2023-05-10T02:17:21;12.60;99.90
3919;DHT22;1974;48.670;8.994;2023-05-10T02:19:49;12.50;99.90
3919;DHT22;1974;48.670;8.994;2023-05-10T02:22:20;12.50;99.90
3919;DHT22;1974;48.670;8.994;2023-05-10T02:24:47;12.50;99.90
3919;DHT22;1974;48.670;8.994;2023-05-10T02:27:17;12.40;99.90
3919;DHT22;1974;48.670;8.994;2023-05-10T02:29:46;12.40;99.90
3919;DHT22;1974;48.670;8.994;2023-05-10T02:32:14;12.40;99.90
3919;DHT22;1974;48.670;8.994;2023-05-10T02:34:42;12.50;99.90
3919;DHT22;1974;48.670;8.994;2023-05-10T02:37:10;12.50;99.90
3919;DHT22;1974;48.670;8.994;2023-05-10T02:39:38;12.40;99.90
3919;DHT22;1974;48.670;8.994;2023-05-10T02:42:11;12.40;99.90
3919;DHT22;1974;48.670;8.994;2023-05-10T02:44:41;12.40;99.90
3919;DHT22;1974;48.670;8.994;2023-05-10T02:47:08;12.40;99.90
3919;DHT22;1974;48.670;8.994;2023-05-10T02:49:35;12.40;99.90
3919;DHT22;1974;48.670;8.994;2023-05-10T02:52:05;12.40;99.90
3919;DHT22;1974;48.670;8.994;2023-05-10T02:54:36;12.40;99.90
3919;DHT22;1974;48.670;8.994;2023-05-10T02:57:08;12.30;99.90
3919;DHT22;1974;48.670;8.994;2023-05-10T02:59:35;12.30;99.90
3919;DHT22;1974;48.670;8.994;2023-05-10T03:02:03;12.30;99.90
3919;DHT22;1974;48.670;8.994;2023-05-10T03:04:30;12.20;99.90
3919;DHT22;1974;48.670;8.994;2023-05-10T03:06:56;12.20;99.90
3919;DHT22;1974;48.670;8.994;2023-05-10T03:09:23;12.30;99.90
3919;DHT22;1974;48.670;8.994;2023-05-10T03:11:56;12.30;99.90
3919;DHT22;1974;48.670;8.994;2023-05-10T03:14:36;12.30;99.90
3919;DHT22;1974;48.670;8.994;2023-05-10T03:17:10;12.20;99.90
3919;DHT22;1974;48.670;8.994;2023-05-10T03:19:43;12.20;99.90
3919;DHT22;1974;48.670;8.994;2023-05-10T03:22:16;12.20;99.90
3919;DHT22;1974;48.670;8.994;2023-05-10T03:24:49;12.20;99.90
3919;DHT22;1974;48.670;8.994;2023-05-10T03:27:16;12.20;99.90
3919;DHT22;1974;48.670;8.994;2023-05-10T03:29:45;12.20;99.90
3919;DHT22;1974;48.670;8.994;2023-05-10T03:32:12;12.20;99.90
3919;DHT22;1974;48.670;8.994;2023-05-10T03:34:41;12.20;99.90
3919;DHT22;1974;48.670;8.994;2023-05-10T03:37:08;12.20;99.90
3919;DHT22;1974;48.670;8.994;2023-05-10T03:39:36;12.10;99.90
3919;DHT22;1974;48.670;8.994;2023-05-10T03:42:03;12.20;99.90
3919;DHT22;1974;48.670;8.994;2023-05-10T03:44:30;12.10;99.90
3919;DHT22;1974;48.670;8.994;2023-05-10T03:46:59;12.10;99.90
3919;DHT22;1974;48.670;8.994;2023-05-10T03:49:26;12.10;99.90
3919;DHT22;1974;48.670;8.994;2023-05-10T03:51:53;12.00;99.90
3919;DHT22;1974;48.670;8.994;2023-05-10T03:54:20;12.00;99.90
3919;DHT22;1974;48.670;8.994;2023-05-10T03:56:46;12.00;99.90
3919;DHT22;1974;48.670;8.994;2023-05-10T03:59:13;12.00;99.90
3919;DHT22;1974;48.670;8.994;2023-05-10T04:01:40;12.00;99.90
3919;DHT22;1974;48.670;8.994;2023-05-10T04:04:08;12.00;99.90
3919;DHT22;1974;48.670;8.994;2023-05-10T04:06:35;12.00;99.90
3919;DHT22;1974;48.670;8.994;2023-05-10T04:09:02;11.90;99.90
3919;DHT22;1974;48.670;8.994;2023-05-10T04:11:30;11.90;99.90
3919;DHT22;1974;48.670;8.994;2023-05-10T04:13:56;11.90;99.90
3919;DHT22;1974;48.670;8.994;2023-05-10T04:16:23;11.90;99.90
3919;DHT22;1974;48.670;8.994;2023-05-10T04:18:50;12.00;99.90
3919;DHT22;1974;48.670;8.994;2023-05-10T04:21:18;12.00;99.90
3919;DHT22;1974;48.670;8.994;2023-05-10T04:23:45;11.90;99.90
3919;DHT22;1974;48.670;8.994;2023-05-10T04:26:12;12.00;99.90
3919;DHT22;1974;48.670;8.994;2023-05-10T04:28:39;11.90;99.90
3919;DHT22;1974;48.670;8.994;2023-05-10T04:31:07;12.00;99.90
3919;DHT22;1974;48.670;8.994;2023-05-10T04:33:34;12.00;99.90
3919;DHT22;1974;48.670;8.994;2023-05-10T04:36:02;12.00;99.90
3919;DHT22;1974;48.670;8.994;2023-05-10T04:38:30;12.00;99.90
3919;DHT22;1974;48.670;8.994;2023-05-10T04:41:04;12.00;99.90
3919;DHT22;1974;48.670;8.994;2023-05-10T04:43:31;12.00;99.90
3919;DHT22;1974;48.670;8.994;2023-05-10T04:45:58;12.00;99.90
3919;DHT22;1974;48.670;8.994;2023-05-10T04:48:24;11.90;99.90
3919;DHT22;1974;48.670;8.994;2023-05-10T04:50:51;12.00;99.90
3919;DHT22;1974;48.670;8.994;2023-05-10T04:53:18;11.90;99.90
3919;DHT22;1974;48.670;8.994;2023-05-10T04:55:46;11.90;99.90
3919;DHT22;1974;48.670;8.994;2023-05-10T04:58:13;11.90;99.90
3919;DHT22;1974;48.670;8.994;2023-05-10T05:00:40;11.90;99.90
3919;DHT22;1974;48.670;8.994;2023-05-10T05:03:07;12.00;99.90
3919;DHT22;1974;48.670;8.994;2023-05-10T05:05:33;12.00;99.90
3919;DHT22;1974;48.670;8.994;2023-05-10T05:08:00;12.00;99.90
3919;DHT22;1974;48.670;8.994;2023-05-10T05:10:27;12.00;99.90
3919;DHT22;1974;48.670;8.994;2023-05-10T05:12:55;12.10;99.90
3919;DHT22;1974;48.670;8.994;2023-05-10T05:15:21;12.10;99.90
3919;DHT22;1974;48.670;8.994;2023-05-10T05:17:48;12.10;99.90
3919;DHT22;1974;48.670;8.994;2023-05-10T05:20:15;12.10;99.90
3919;DHT22;1974;48.670;8.994;2023-05-10T05:22:42;12.10;99.90
3919;DHT22;1974;48.670;8.994;2023-05-10T05:25:09;12.00;99.90
3919;DHT22;1974;48.670;8.994;2023-05-10T05:27:37;12.00;99.90
3919;DHT22;1974;48.670;8.994;2023-05-10T05:30:06;12.00;99.90
3919;DHT22;1974;48.670;8.994;2023-05-10T05:32:33;12.10;99.90
3919;DHT22;1974;48.670;8.994;2023-05-10T05:35:00;12.10;99.90
3919;DHT22;1974;48.670;8.994;2023-05-10T05:37:27;12.20;99.90
3919;DHT22;1974;48.670;8.994;2023-05-10T05:39:53;12.20;99.90
3919;DHT22;1974;48.670;8.994;2023-05-10T05:42:20;12.30;99.90
3919;DHT22;1974;48.670;8.994;2023-05-10T05:44:47;12.30;99.90
3919;DHT22;1974;48.670;8.994;2023-05-10T05:47:15;12.30;99.90
3919;DHT22;1974;48.670;8.994;2023-05-10T05:49:42;12.30;99.90
3919;DHT22;1974;48.670;8.994;2023-05-10T05:52:11;12.40;99.90
3919;DHT22;1974;48.670;8.994;2023-05-10T05:54:38;12.40;99.90
3919;DHT22;1974;48.670;8.994;2023-05-10T05:57:05;12.40;99.90
3919;DHT22;1974;48.670;8.994;2023-05-10T05:59:31;12.40;99.90
3919;DHT22;1974;48.670;8.994;2023-05-10T06:01:58;12.50;99.90
3919;DHT22;1974;48.670;8.994;2023-05-10T06:04:27;12.50;99.90
3919;DHT22;1974;48.670;8.994;2023-05-10T06:06:54;12.60;99.90
3919;DHT22;1974;48.670;8.994;2023-05-10T06:09:20;12.70;99.90
3919;DHT22;1974;48.670;8.994;2023-05-10T06:11:49;12.70;99.90
3919;DHT22;1974;48.670;8.994;2023-05-10T06:14:15;12.80;99.90
3919;DHT22;1974;48.670;8.994;2023-05-10T06:16:42;12.90;99.90
3919;DHT22;1974;48.670;8.994;2023-05-10T06:19:09;12.90;99.90
3919;DHT22;1974;48.670;8.994;2023-05-10T06:21:37;12.90;99.90
3919;DHT22;1974;48.670;8.994;2023-05-10T06:24:05;12.90;99.90
3919;DHT22;1974;48.670;8.994;2023-05-10T06:26:32;13.00;99.90
3919;DHT22;1974;48.670;8.994;2023-05-10T06:28:59;13.10;99.90
3919;DHT22;1974;48.670;8.994;2023-05-10T06:31:26;13.10;99.90
3919;DHT22;1974;48.670;8.994;2023-05-10T06:33:53;13.20;99.90
3919;DHT22;1974;48.670;8.994;2023-05-10T06:36:20;13.30;99.90
3919;DHT22;1974;48.670;8.994;2023-05-10T06:38:48;13.30;99.90
3919;DHT22;1974;48.670;8.994;2023-05-10T06:41:16;13.30;99.90
3919;DHT22;1974;48.670;8.994;2023-05-10T06:43:43;13.30;99.90
3919;DHT22;1974;48.670;8.994;2023-05-10T06:46:10;13.30;99.90
3919;DHT22;1974;48.670;8.994;2023-05-10T06:48:36;13.20;99.90
3919;DHT22;1974;48.670;8.994;2023-05-10T06:51:03;13.20;99.90
3919;DHT22;1974;48.670;8.994;2023-05-10T06:53:30;13.30;99.90
3919;DHT22;1974;48.670;8.994;2023-05-10T06:55:58;13.30;99.90
3919;DHT22;1974;48.670;8.994;2023-05-10T06:58:25;13.40;99.90
3919;DHT22;1974;48.670;8.994;2023-05-10T07:00:51;13.40;99.90
3919;DHT22;1974;48.670;8.994;2023-05-10T07:03:18;13.50;99.90
3919;DHT22;1974;48.670;8.994;2023-05-10T07:05:45;13.60;99.90
3919;DHT22;1974;48.670;8.994;2023-05-10T07:08:12;13.70;99.90
3919;DHT22;1974;48.670;8.994;2023-05-10T07:10:39;13.70;99.90
3919;DHT22;1974;48.670;8.994;2023-05-10T07:13:07;13.80;99.90
3919;DHT22;1974;48.670;8.994;2023-05-10T07:15:33;13.80;99.90
3919;DHT22;1974;48.670;8.994;2023-05-10T07:18:00;13.80;99.90
3919;DHT22;1974;48.670;8.994;2023-05-10T07:20:27;13.90;99.90
3919;DHT22;1974;48.670;8.994;2023-05-10T07:22:54;13.90;99.90
3919;DHT22;1974;48.670;8.994;2023-05-10T07:25:20;14.00;99.90
3919;DHT22;1974;48.670;8.994;2023-05-10T07:27:47;14.00;99.90
3919;DHT22;1974;48.670;8.994;2023-05-10T07:30:15;14.00;99.90
3919;DHT22;1974;48.670;8.994;2023-05-10T07:32:42;14.00;99.90
3919;DHT22;1974;48.670;8.994;2023-05-10T07:35:09;14.00;99.90
3919;DHT22;1974;48.670;8.994;2023-05-10T07:37:36;14.10;99.90
3919;DHT22;1974;48.670;8.994;2023-05-10T07:40:03;14.10;99.90
3919;DHT22;1974;48.670;8.994;2023-05-10T07:42:30;14.20;99.90
3919;DHT22;1974;48.670;8.994;2023-05-10T07:44:57;14.20;99.90
3919;DHT22;1974;48.670;8.994;2023-05-10T07:47:25;14.20;99.90
3919;DHT22;1974;48.670;8.994;2023-05-10T07:49:52;14.30;99.90
3919;DHT22;1974;48.670;8.994;2023-05-10T07:52:18;14.30;99.90
3919;DHT22;1974;48.670;8.994;2023-05-10T07:54:45;14.30;99.90
3919;DHT22;1974;48.670;8.994;2023-05-10T07:57:12;14.40;99.90
3919;DHT22;1974;48.670;8.994;2023-05-10T07:59:42;14.40;99.90
3919;DHT22;1974;48.670;8.994;2023-05-10T08:02:09;14.50;99.90
3919;DHT22;1974;48.670;8.994;2023-05-10T08:04:37;14.50;99.90
3919;DHT22;1974;48.670;8.994;2023-05-10T08:07:04;14.50;99.90
3919;DHT22;1974;48.670;8.994;2023-05-10T08:09:31;14.60;99.90
3919;DHT22;1974;48.670;8.994;2023-05-10T08:11:58;14.70;99.90
3919;DHT22;1974;48.670;8.994;2023-05-10T08:14:25;14.70;99.90
3919;DHT22;1974;48.670;8.994;2023-05-10T08:16:52;14.60;99.90
3919;DHT22;1974;48.670;8.994;2023-05-10T08:19:19;14.70;99.90
3919;DHT22;1974;48.670;8.994;2023-05-10T08:21:48;14.90;99.90
3919;DHT22;1974;48.670;8.994;2023-05-10T08:24:15;15.00;99.90
3919;DHT22;1974;48.670;8.994;2023-05-10T08:26:42;15.10;99.90
3919;DHT22;1974;48.670;8.994;2023-05-10T08:29:08;15.20;99.90
3919;DHT22;1974;48.670;8.994;2023-05-10T08:31:35;15.30;99.90
3919;DHT22;1974;48.670;8.994;2023-05-10T08:34:02;15.20;99.90
3919;DHT22;1974;48.670;8.994;2023-05-10T08:36:28;15.30;99.90
3919;DHT22;1974;48.670;8.994;2023-05-10T08:38:57;15.20;99.90
3919;DHT22;1974;48.670;8.994;2023-05-10T08:41:24;15.10;99.90
3919;DHT22;1974;48.670;8.994;2023-05-10T08:43:52;15.00;99.90
3919;DHT22;1974;48.670;8.994;2023-05-10T08:46:21;15.00;99.90
3919;DHT22;1974;48.670;8.994;2023-05-10T08:48:49;14.90;99.90
3919;DHT22;1974;48.670;8.994;2023-05-10T08:51:18;14.90;99.90
3919;DHT22;1974;48.670;8.994;2023-05-10T08:53:45;15.00;99.90
3919;DHT22;1974;48.670;8.994;2023-05-10T08:56:15;15.10;99.90
3919;DHT22;1974;48.670;8.994;2023-05-10T08:58:43;15.10;99.90
3919;DHT22;1974;48.670;8.994;2023-05-10T09:01:10;15.20;99.90
3919;DHT22;1974;48.670;8.994;2023-05-10T09:03:38;15.40;99.90
3919;DHT22;1974;48.670;8.994;2023-05-10T09:06:05;15.50;99.90
3919;DHT22;1974;48.670;8.994;2023-05-10T09:08:32;15.60;99.90
3919;DHT22;1974;48.670;8.994;2023-05-10T09:11:00;15.70;99.90
3919;DHT22;1974;48.670;8.994;2023-05-10T09:13:29;15.70;99.90
3919;DHT22;1974;48.670;8.994;2023-05-10T09:15:57;15.80;99.90
3919;DHT22;1974;48.670;8.994;2023-05-10T09:18:24;15.80;99.90
3919;DHT22;1974;48.670;8.994;2023-05-10T09:20:50;15.80;99.90
3919;DHT22;1974;48.670;8.994;2023-05-10T09:23:18;15.80;99.90
3919;DHT22;1974;48.670;8.994;2023-05-10T09:25:45;15.80;99.90
3919;DHT22;1974;48.670;8.994;2023-05-10T09:28:12;15.80;99.90
3919;DHT22;1974;48.670;8.994;2023-05-10T09:30:40;15.90;99.90
3919;DHT22;1974;48.670;8.994;2023-05-10T09:33:08;15.90;99.90
3919;DHT22;1974;48.670;8.994;2023-05-10T09:35:35;16.10;99.90
3919;DHT22;1974;48.670;8.994;2023-05-10T09:38:03;16.30;99.90
3919;DHT22;1974;48.670;8.994;2023-05-10T09:40:31;16.30;99.90
3919;DHT22;1974;48.670;8.994;2023-05-10T09:43:00;16.50;99.90
3919;DHT22;1974;48.670;8.994;2023-05-10T09:45:28;16.60;99.90
3919;DHT22;1974;48.670;8.994;2023-05-10T09:47:57;16.80;99.90
3919;DHT22;1974;48.670;8.994;2023-05-10T09:50:24;17.00;99.90
3919;DHT22;1974;48.670;8.994;2023-05-10T09:52:54;17.10;99.90
3919;DHT22;1974;48.670;8.994;2023-05-10T09:55:22;17.20;99.90
3919;DHT22;1974;48.670;8.994;2023-05-10T09:57:58;17.20;99.90
3919;DHT22;1974;48.670;8.994;2023-05-10T10:00:25;17.20;99.90
3919;DHT22;1974;48.670;8.994;2023-05-10T10:02:55;17.30;99.90
3919;DHT22;1974;48.670;8.994;2023-05-10T10:05:29;17.40;99.90
3919;DHT22;1974;48.670;8.994;2023-05-10T10:07:56;17.70;99.90
3919;DHT22;1974;48.670;8.994;2023-05-10T10:10:24;17.90;99.90
3919;DHT22;1974;48.670;8.994;2023-05-10T10:12:51;18.00;99.90
3919;DHT22;1974;48.670;8.994;2023-05-10T10:15:18;18.00;99.90
3919;DHT22;1974;48.670;8.994;2023-05-10T10:17:45;18.20;99.90
3919;DHT22;1974;48.670;8.994;2023-05-10T10:20:13;18.30;99.90
3919;DHT22;1974;48.670;8.994;2023-05-10T10:22:42;18.50;99.90
3919;DHT22;1974;48.670;8.994;2023-05-10T10:25:12;18.60;99.90
3919;DHT22;1974;48.670;8.994;2023-05-10T10:27:56;18.70;99.90
3919;DHT22;1974;48.670;8.994;2023-05-10T10:30:28;18.70;99.90
3919;DHT22;1974;48.670;8.994;2023-05-10T10:33:13;18.70;99.90
3919;DHT22;1974;48.670;8.994;2023-05-10T10:35:45;18.60;99.90
3919;DHT22;1974;48.670;8.994;2023-05-10T10:38:14;18.30;99.90
3919;DHT22;1974;48.670;8.994;2023-05-10T10:40:41;18.30;99.90
3919;DHT22;1974;48.670;8.994;2023-05-10T10:43:22;18.20;99.90
3919;DHT22;1974;48.670;8.994;2023-05-10T10:46:10;17.90;99.90
3919;DHT22;1974;48.670;8.994;2023-05-10T10:48:37;17.20;99.90
3919;DHT22;1974;48.670;8.994;2023-05-10T10:51:04;16.70;99.90
3919;DHT22;1974;48.670;8.994;2023-05-10T10:53:32;16.30;99.90
3919;DHT22;1974;48.670;8.994;2023-05-10T10:56:05;15.90;99.90
3919;DHT22;1974;48.670;8.994;2023-05-10T10:58:35;15.60;99.90
3919;DHT22;1974;48.670;8.994;2023-05-10T11:01:13;15.40;99.90
3919;DHT22;1974;48.670;8.994;2023-05-10T11:03:41;15.30;99.90
3919;DHT22;1974;48.670;8.994;2023-05-10T11:06:16;15.30;99.90
3919;DHT22;1974;48.670;8.994;2023-05-10T11:09:05;15.30;99.90
3919;DHT22;1974;48.670;8.994;2023-05-10T11:11:34;15.40;99.90
3919;DHT22;1974;48.670;8.994;2023-05-10T11:14:04;15.50;99.90
3919;DHT22;1974;48.670;8.994;2023-05-10T11:16:41;15.60;99.90
3919;DHT22;1974;48.670;8.994;2023-05-10T11:19:09;15.70;99.90
3919;DHT22;1974;48.670;8.994;2023-05-10T11:21:45;15.70;99.90
3919;DHT22;1974;48.670;8.994;2023-05-10T11:24:15;15.60;99.90
3919;DHT22;1974;48.670;8.994;2023-05-10T11:26:42;15.60;99.90
3919;DHT22;1974;48.670;8.994;2023-05-10T11:29:09;15.30;99.90
3919;DHT22;1974;48.670;8.994;2023-05-10T11:31:42;15.30;99.90
3919;DHT22;1974;48.670;8.994;2023-05-10T11:34:10;15.40;99.90
3919;DHT22;1974;48.670;8.994;2023-05-10T11:36:38;15.60;99.90
3919;DHT22;1974;48.670;8.994;2023-05-10T11:39:05;15.80;99.90
3919;DHT22;1974;48.670;8.994;2023-05-10T11:41:33;16.10;99.90
3919;DHT22;1974;48.670;8.994;2023-05-10T11:44:01;16.30;99.90
3919;DHT22;1974;48.670;8.994;2023-05-10T11:46:28;16.50;99.90
3919;DHT22;1974;48.670;8.994;2023-05-10T11:48:58;16.70;99.90
3919;DHT22;1974;48.670;8.994;2023-05-10T11:51:27;16.90;99.90
3919;DHT22;1974;48.670;8.994;2023-05-10T11:53:55;16.90;99.90
3919;DHT22;1974;48.670;8.994;2023-05-10T11:56:22;16.80;99.90
3919;DHT22;1974;48.670;8.994;2023-05-10T11:58:57;16.90;99.90
3919;DHT22;1974;48.670;8.994;2023-05-10T12:01:24;17.00;99.90
3919;DHT22;1974;48.670;8.994;2023-05-10T12:03:53;17.10;99.90
3919;DHT22;1974;48.670;8.994;2023-05-10T12:06:21;17.30;99.90
3919;DHT22;1974;48.670;8.994;2023-05-10T12:08:49;17.20;99.90
3919;DHT22;1974;48.670;8.994;2023-05-10T12:11:17;17.10;99.90
3919;DHT22;1974;48.670;8.994;2023-05-10T12:13:44;16.90;99.90
3919;DHT22;1974;48.670;8.994;2023-05-10T12:16:15;16.70;99.90
3919;DHT22;1974;48.670;8.994;2023-05-10T12:18:42;16.70;99.90
3919;DHT22;1974;48.670;8.994;2023-05-10T12:21:10;16.70;99.90
3919;DHT22;1974;48.670;8.994;2023-05-10T12:23:37;16.60;99.90
3919;DHT22;1974;48.670;8.994;2023-05-10T12:26:04;16.60;99.90
3919;DHT22;1974;48.670;8.994;2023-05-10T12:28:32;16.50;99.90
3919;DHT22;1974;48.670;8.994;2023-05-10T12:30:59;16.50;99.90
3919;DHT22;1974;48.670;8.994;2023-05-10T12:33:35;16.50;99.90
3919;DHT22;1974;48.670;8.994;2023-05-10T12:36:02;16.40;99.90
3919;DHT22;1974;48.670;8.994;2023-05-10T12:38:32;16.40;99.90
3919;DHT22;1974;48.670;8.994;2023-05-10T12:41:00;16.30;99.90
3919;DHT22;1974;48.670;8.994;2023-05-10T12:43:27;16.30;99.90
3919;DHT22;1974;48.670;8.994;2023-05-10T12:45:54;16.40;99.90
3919;DHT22;1974;48.670;8.994;2023-05-10T12:48:20;16.50;99.90
3919;DHT22;1974;48.670;8.994;2023-05-10T12:50:48;16.60;99.90
3919;DHT22;1974;48.670;8.994;2023-05-10T12:53:15;16.70;99.90
3919;DHT22;1974;48.670;8.994;2023-05-10T12:55:43;16.70;99.90
3919;DHT22;1974;48.670;8.994;2023-05-10T12:58:09;16.80;99.90
3919;DHT22;1974;48.670;8.994;2023-05-10T13:00:36;16.80;99.90
3919;DHT22;1974;48.670;8.994;2023-05-10T13:03:03;16.90;99.90
3919;DHT22;1974;48.670;8.994;2023-05-10T13:05:30;16.90;99.90
3919;DHT22;1974;48.670;8.994;2023-05-10T13:07:58;16.80;99.90
3919;DHT22;1974;48.670;8.994;2023-05-10T13:10:25;16.90;99.90
3919;DHT22;1974;48.670;8.994;2023-05-10T13:12:52;17.00;99.90
3919;DHT22;1974;48.670;8.994;2023-05-10T13:15:19;17.10;99.90
3919;DHT22;1974;48.670;8.994;2023-05-10T13:17:46;17.00;99.90
3919;DHT22;1974;48.670;8.994;2023-05-10T13:20:12;17.00;99.90
3919;DHT22;1974;48.670;8.994;2023-05-10T13:22:40;17.00;99.90
3919;DHT22;1974;48.670;8.994;2023-05-10T13:25:09;16.90;99.90
3919;DHT22;1974;48.670;8.994;2023-05-10T13:27:36;17.00;99.90
3919;DHT22;1974;48.670;8.994;2023-05-10T13:30:03;16.90;99.90
3919;DHT22;1974;48.670;8.994;2023-05-10T13:32:30;17.00;99.90
3919;DHT22;1974;48.670;8.994;2023-05-10T13:34:57;17.00;99.90
3919;DHT22;1974;48.670;8.994;2023-05-10T13:37:23;17.10;99.90
3919;DHT22;1974;48.670;8.994;2023-05-10T13:39:50;17.00;99.90
3919;DHT22;1974;48.670;8.994;2023-05-10T13:42:18;17.10;99.90
3919;DHT22;1974;48.670;8.994;2023-05-10T13:44:45;17.10;99.90
3919;DHT22;1974;48.670;8.994;2023-05-10T13:47:12;17.10;99.90
3919;DHT22;1974;48.670;8.994;2023-05-10T13:49:38;17.10;99.90
3919;DHT22;1974;48.670;8.994;2023-05-10T13:52:05;17.10;99.90
3919;DHT22;1974;48.670;8.994;2023-05-10T13:54:32;17.10;99.90
3919;DHT22;1974;48.670;8.994;2023-05-10T13:56:59;17.20;99.90
3919;DHT22;1974;48.670;8.994;2023-05-10T13:59:28;17.20;99.90
3919;DHT22;1974;48.670;8.994;2023-05-10T14:01:57;17.20;99.90
3919;DHT22;1974;48.670;8.994;2023-05-10T14:04:23;17.20;99.90
3919;DHT22;1974;48.670;8.994;2023-05-10T14:06:50;17.20;99.90
3919;DHT22;1974;48.670;8.994;2023-05-10T14:09:18;17.20;99.90
3919;DHT22;1974;48.670;8.994;2023-05-10T14:11:45;17.20;99.90
3919;DHT22;1974;48.670;8.994;2023-05-10T14:14:12;17.20;99.90
3919;DHT22;1974;48.670;8.994;2023-05-10T14:16:42;17.10;99.90
3919;DHT22;1974;48.670;8.994;2023-05-10T14:19:09;17.10;99.90
3919;DHT22;1974;48.670;8.994;2023-05-10T14:21:35;17.10;99.90
3919;DHT22;1974;48.670;8.994;2023-05-10T14:24:02;17.00;99.90
3919;DHT22;1974;48.670;8.994;2023-05-10T14:26:30;17.00;99.90
3919;DHT22;1974;48.670;8.994;2023-05-10T14:28:56;17.00;99.90
3919;DHT22;1974;48.670;8.994;2023-05-10T14:31:24;17.00;99.90
3919;DHT22;1974;48.670;8.994;2023-05-10T14:33:53;17.00;99.90
3919;DHT22;1974;48.670;8.994;2023-05-10T14:36:19;17.00;99.90
3919;DHT22;1974;48.670;8.994;2023-05-10T14:38:46;17.00;99.90
3919;DHT22;1974;48.670;8.994;2023-05-10T14:41:13;17.00;99.90
3919;DHT22;1974;48.670;8.994;2023-05-10T14:43:40;17.00;99.90
3919;DHT22;1974;48.670;8.994;2023-05-10T14:46:07;17.00;99.90
3919;DHT22;1974;48.670;8.994;2023-05-10T14:48:34;17.00;99.90
3919;DHT22;1974;48.670;8.994;2023-05-10T14:51:02;17.00;99.90
3919;DHT22;1974;48.670;8.994;2023-05-10T14:53:30;17.00;99.90
3919;DHT22;1974;48.670;8.994;2023-05-10T14:55:56;17.10;99.90
3919;DHT22;1974;48.670;8.994;2023-05-10T14:58:25;17.00;99.90
3919;DHT22;1974;48.670;8.994;2023-05-10T15:00:52;17.00;99.90
3919;DHT22;1974;48.670;8.994;2023-05-10T15:03:19;17.00;99.90
3919;DHT22;1974;48.670;8.994;2023-05-10T15:05:46;17.00;99.90
3919;DHT22;1974;48.670;8.994;2023-05-10T15:08:14;16.90;99.90
3919;DHT22;1974;48.670;8.994;2023-05-10T15:10:41;16.90;99.90
3919;DHT22;1974;48.670;8.994;2023-05-10T15:13:08;16.90;99.90
3919;DHT22;1974;48.670;8.994;2023-05-10T15:15:35;16.90;99.90
3919;DHT22;1974;48.670;8.994;2023-05-10T15:18:01;16.90;99.90
3919;DHT22;1974;48.670;8.994;2023-05-10T15:20:28;16.90;99.90
3919;DHT22;1974;48.670;8.994;2023-05-10T15:22:55;16.90;99.90
3919;DHT22;1974;48.670;8.994;2023-05-10T15:25:23;16.80;99.90
3919;DHT22;1974;48.670;8.994;2023-05-10T15:27:50;16.80;99.90
3919;DHT22;1974;48.670;8.994;2023-05-10T15:30:17;16.80;99.90
3919;DHT22;1974;48.670;8.994;2023-05-10T15:32:44;16.90;99.90
3919;DHT22;1974;48.670;8.994;2023-05-10T15:35:10;16.80;99.90
3919;DHT22;1974;48.670;8.994;2023-05-10T15:37:37;16.80;99.90
3919;DHT22;1974;48.670;8.994;2023-05-10T15:40:05;16.80;99.90
3919;DHT22;1974;48.670;8.994;2023-05-10T15:42:33;16.80;99.90
3919;DHT22;1974;48.670;8.994;2023-05-10T15:45:00;16.80;99.90
3919;DHT22;1974;48.670;8.994;2023-05-10T15:47:30;16.80;99.90
3919;DHT22;1974;48.670;8.994;2023-05-10T15:49:57;16.70;99.90
3919;DHT22;1974;48.670;8.994;2023-05-10T15:52:23;16.70;99.90
3919;DHT22;1974;48.670;8.994;2023-05-10T15:54:50;16.80;99.90
3919;DHT22;1974;48.670;8.994;2023-05-10T15:57:17;16.70;99.90
3919;DHT22;1974;48.670;8.994;2023-05-10T15:59:45;16.70;99.90
3919;DHT22;1974;48.670;8.994;2023-05-10T16:02:12;16.70;99.90
3919;DHT22;1974;48.670;8.994;2023-05-10T16:04:38;16.70;99.90
3919;DHT22;1974;48.670;8.994;2023-05-10T16:07:05;16.70;99.90
3919;DHT22;1974;48.670;8.994;2023-05-10T16:09:32;16.70;99.90
3919;DHT22;1974;48.670;8.994;2023-05-10T16:11:59;16.70;99.90